Time;durP1;ratioP1;P1;durP2;ratioP2;P2;SDS_P1;SDS_P2;PMS_P1;PMS_P2;Temp;Humidity;BMP_temperature;BMP_pressure;BME280_temperature;BME280_humidity;BME280_pressure;Samples;Min_cycle;Max_cycle;Signal;HPM_P1;HPM_P2
2020/12/29 00:00:52;;;;;;;4.13;2.42;;;;;;;1.46;83.07;95503.00;4973036;28;20023;-71
2020/12/29 00:03:18;;;;;;;4.75;2.38;;;;;;;1.81;80.05;95494.06;4972890;28;20053;-71
2020/12/29 00:05:44;;;;;;;2.30;2.10;;;;;;;2.03;79.09;95494.09;4973167;28;20113;-71
2020/12/29 00:08:09;;;;;;;3.67;2.08;;;;;;;2.16;79.83;95492.75;4973252;28;20511;-71
2020/12/29 00:10:34;;;;;;;2.50;1.58;;;;;;;2.25;78.01;95489.03;4955816;28;20038;-71
2020/12/29 00:13:00;;;;;;;1.80;1.63;;;;;;;2.68;75.67;95488.16;4972767;28;20095;-71
2020/12/29 00:15:25;;;;;;;2.22;1.40;;;;;;;2.70;75.58;95496.59;4973050;28;20031;-71
2020/12/29 00:17:51;;;;;;;1.75;1.40;;;;;;;2.75;76.39;95499.81;4972656;28;20018;-71
2020/12/29 00:20:16;;;;;;;1.63;1.52;;;;;;;2.83;77.25;95492.66;4972957;28;20543;-71
2020/12/29 00:22:41;;;;;;;1.48;1.33;;;;;;;2.65;77.44;95487.47;4972640;28;20080;-71
2020/12/29 00:25:07;;;;;;;2.30;1.52;;;;;;;2.73;76.06;95476.03;4972984;28;20030;-72
2020/12/29 00:27:32;;;;;;;1.55;1.45;;;;;;;2.96;74.90;95490.44;4973132;28;20496;-73
2020/12/29 00:29:58;;;;;;;1.40;1.20;;;;;;;3.02;75.59;95487.63;4974472;28;20023;-73
2020/12/29 00:32:23;;;;;;;1.10;1.10;;;;;;;2.99;75.93;95486.91;4976487;28;20035;-73
2020/12/29 00:34:49;;;;;;;1.13;1.02;;;;;;;3.16;75.04;95489.63;4976519;28;20031;-72
2020/12/29 00:37:15;;;;;;;1.15;1.05;;;;;;;3.08;75.89;95486.53;4976650;28;20031;-72
2020/12/29 00:39:41;;;;;;;1.08;1.00;;;;;;;3.24;74.77;95487.56;4976774;28;20400;-72
2020/12/29 00:42:06;;;;;;;1.45;0.95;;;;;;;3.22;75.55;95484.22;4976501;28;20223;-73
2020/12/29 00:44:31;;;;;;;1.10;1.00;;;;;;;3.27;73.42;95487.44;4976454;28;20660;-73
2020/12/29 00:46:57;;;;;;;1.05;1.00;;;;;;;3.18;75.86;95499.78;4976512;28;20433;-73
2020/12/29 00:49:22;;;;;;;1.48;1.10;;;;;;;3.02;75.42;95497.03;4976413;28;20089;-72
2020/12/29 00:51:48;;;;;;;1.80;1.30;;;;;;;2.97;76.88;95493.84;4976265;28;20452;-72
2020/12/29 00:54:13;;;;;;;1.45;1.10;;;;;;;2.86;76.53;95501.13;4976218;28;20050;-72
2020/12/29 00:56:38;;;;;;;1.27;1.23;;;;;;;2.89;78.81;95513.75;4976388;28;20022;-72
2020/12/29 00:59:04;;;;;;;1.00;1.00;;;;;;;2.79;77.47;95505.63;4976212;28;20309;-72
2020/12/29 07:00:36;;;;;;;1.98;0.90;;;;;;;3.57;81.07;95953.69;5906374;23;20081;-74
2020/12/29 07:03:02;;;;;;;1.52;0.88;;;;;;;3.59;81.40;95974.13;4956715;28;20066;-73
2020/12/29 07:05:36;;;;;;;0.70;0.70;;;;;;;3.65;81.50;95968.78;4956979;28;20031;-73
2020/12/29 07:08:05;;;;;;;0.80;0.80;;;;;;;3.60;81.02;95971.50;4974917;28;20026;-75
2020/12/29 07:10:35;;;;;;;1.35;0.80;;;;;;;3.59;81.14;95981.81;4971543;28;20475;-75
2020/12/29 07:13:21;;;;;;;1.30;0.70;;;;;;;3.62;81.26;95986.81;4955444;29;20038;-75
2020/12/29 07:15:53;;;;;;;4.85;0.80;;;;;;;3.67;80.57;95997.72;5022657;23;20173;-77
2020/12/29 07:18:22;;;;;;;1.10;0.85;;;;;;;3.67;81.35;96007.13;4973827;28;20052;-77
2020/12/29 07:20:49;;;;;;;1.58;0.73;;;;;;;3.68;80.46;96009.66;4973773;28;20055;-77
2020/12/29 07:23:18;;;;;;;2.60;0.95;;;;;;;3.68;80.65;96027.56;4973664;28;20074;-77
2020/12/29 07:25:46;;;;;;;1.17;0.95;;;;;;;3.67;80.73;96018.19;4963044;28;20029;-77
2020/12/29 07:28:11;;;;;;;3.78;0.90;;;;;;;3.65;80.78;96040.47;4954530;29;20057;-77
2020/12/29 07:30:37;;;;;;;2.47;0.98;;;;;;;3.63;80.79;96032.03;4954281;29;20531;-77
2020/12/29 07:33:05;;;;;;;1.55;0.80;;;;;;;3.65;80.92;96040.47;4954125;29;20086;-77
2020/12/29 07:35:32;;;;;;;2.03;0.80;;;;;;;3.67;80.63;96054.03;4954231;28;20498;-77
2020/12/29 07:38:04;;;;;;;1.23;1.13;;;;;;;3.69;80.88;96054.00;4954157;29;20055;-77
2020/12/29 07:40:30;;;;;;;1.42;0.88;;;;;;;3.69;80.66;96062.53;4953722;28;20035;-77
2020/12/29 07:42:55;;;;;;;4.10;1.10;;;;;;;3.68;81.21;96068.53;4953978;29;20106;-77
2020/12/29 07:45:21;;;;;;;2.97;1.15;;;;;;;3.69;80.87;96083.00;4954219;28;20492;-77
2020/12/29 07:47:47;;;;;;;0.80;0.80;;;;;;;3.66;80.70;96083.09;4954074;29;20027;-77
2020/12/29 07:50:12;;;;;;;1.38;0.85;;;;;;;3.68;81.35;96091.59;4954172;29;20392;-77
2020/12/29 07:52:37;;;;;;;3.65;0.68;;;;;;;3.61;81.45;96101.19;4953713;29;20117;-77
2020/12/29 07:55:10;;;;;;;0.80;0.70;;;;;;;3.65;81.63;96106.22;4953999;28;20046;-77
2020/12/29 07:57:36;;;;;;;5.90;1.10;;;;;;;3.56;81.84;96109.91;4954034;29;20015;-77
2020/12/29 08:00:14;;;;;;;4.50;2.35;;;;;;;3.64;81.04;96115.63;4954103;29;20384;-77
2020/12/29 08:02:39;;;;;;;1.20;0.90;;;;;;;3.71;80.88;96106.81;4953660;29;20031;-77
2020/12/29 08:05:07;;;;;;;2.15;0.90;;;;;;;3.74;80.28;96126.38;4953904;28;20035;-77
2020/12/29 08:07:32;;;;;;;1.70;1.10;;;;;;;3.70;80.86;96128.22;4953883;29;20038;-77
2020/12/29 08:09:57;;;;;;;2.00;0.85;;;;;;;3.72;80.35;96134.09;4953782;29;20384;-77
2020/12/29 08:12:23;;;;;;;2.83;1.00;;;;;;;3.76;80.77;96155.31;4953743;29;20031;-77
2020/12/29 08:14:48;;;;;;;1.15;0.98;;;;;;;3.75;80.57;96151.94;4953445;28;20031;-76
2020/12/29 08:17:14;;;;;;;2.92;1.08;;;;;;;3.80;80.14;96146.66;4953901;29;20046;-77
2020/12/29 08:19:39;;;;;;;9.10;1.00;;;;;;;3.88;80.12;96159.22;4953758;29;20026;-77
2020/12/29 08:22:09;;;;;;;2.83;1.10;;;;;;;3.85;80.45;96165.25;4953709;29;20038;-77
2020/12/29 08:24:35;;;;;;;3.22;1.10;;;;;;;3.91;79.91;96169.34;4953571;28;20023;-77
2020/12/29 08:27:01;;;;;;;2.33;0.90;;;;;;;3.91;80.34;96169.34;4953998;29;20037;-74
2020/12/29 08:29:27;;;;;;;3.88;1.10;;;;;;;4.01;79.82;96181.81;4953654;29;20027;-73
2020/12/29 08:32:24;;;;;;;2.20;1.10;;;;;;;3.99;79.83;96183.56;4953540;29;20543;-73
2020/12/29 08:34:50;;;;;;;1.25;0.90;;;;;;;4.05;79.59;96187.63;4941334;28;20075;-74
2020/12/29 08:37:22;;;;;;;1.50;0.90;;;;;;;4.09;79.59;96184.09;4953679;29;20078;-73
2020/12/29 08:40:02;;;;;;;2.05;1.05;;;;;;;4.12;79.02;96195.06;4953678;29;20061;-74
2020/12/29 08:42:31;;;;;;;2.40;1.13;;;;;;;4.29;78.92;96204.72;4953583;29;20100;-73
2020/12/29 08:44:59;;;;;;;1.95;0.98;;;;;;;4.35;78.67;96211.38;4953377;28;20034;-77
2020/12/29 08:47:31;;;;;;;3.83;1.50;;;;;;;4.26;79.17;96217.66;4953558;29;20034;-77
2020/12/29 08:49:56;;;;;;;3.15;1.23;;;;;;;4.18;79.03;96229.91;4953425;29;20440;-71
2020/12/29 08:52:31;;;;;;;2.35;1.20;;;;;;;4.21;79.87;96240.06;4955559;28;20027;-72
2020/12/29 08:54:57;;;;;;;6.38;1.23;;;;;;;4.11;79.56;96244.66;4956994;28;20035;-72
2020/12/29 08:57:26;;;;;;;3.63;1.40;;;;;;;4.11;79.89;96256.63;4957167;29;20038;-72
2020/12/29 08:59:52;;;;;;;2.92;1.17;;;;;;;4.09;80.35;96266.91;4956982;29;20024;-72
2020/12/29 09:02:27;;;;;;;2.35;1.20;;;;;;;4.11;80.86;96275.41;4939813;29;20034;-71
2020/12/29 09:04:58;;;;;;;1.52;1.10;;;;;;;4.10;82.07;96278.81;4956818;28;20095;-71
2020/12/29 09:07:24;;;;;;;1.40;1.20;;;;;;;3.96;82.87;96280.16;4957028;29;20023;-76
2020/12/29 09:09:52;;;;;;;2.42;1.10;;;;;;;4.05;83.54;96290.13;4956858;29;20097;-75
2020/12/29 09:12:22;;;;;;;4.93;1.35;;;;;;;4.01;82.70;96303.91;4956967;29;20094;-75
2020/12/29 09:14:59;;;;;;;2.55;1.17;;;;;;;3.86;82.90;96308.63;4956432;28;20110;-71
2020/12/29 09:17:29;;;;;;;2.42;1.25;;;;;;;3.92;82.52;96309.34;4956922;29;20030;-72
2020/12/29 09:20:07;;;;;;;4.60;1.10;;;;;;;3.98;82.68;96319.41;4956654;29;20020;-71
2020/12/29 09:22:33;;;;;;;1.63;1.38;;;;;;;3.98;82.17;96333.03;4956576;29;20031;-71
2020/12/29 09:24:59;;;;;;;9.23;1.30;;;;;;;3.96;82.02;96333.97;4956422;28;20034;-72
2020/12/29 09:27:28;;;;;;;1.75;1.02;;;;;;;3.91;82.33;96344.34;4956640;29;20484;-76
2020/12/29 09:29:54;;;;;;;1.23;0.93;;;;;;;3.86;82.98;96351.34;4956499;29;20035;-75
2020/12/29 09:32:19;;;;;;;4.47;1.02;;;;;;;3.77;82.51;96357.59;4956413;29;20031;-75
2020/12/29 09:34:45;;;;;;;1.65;1.10;;;;;;;3.91;83.21;96354.59;4956125;28;20082;-75
2020/12/29 09:37:10;;;;;;;1.08;0.98;;;;;;;3.92;83.84;96360.59;4956485;29;20113;-75
2020/12/29 09:39:36;;;;;;;5.53;1.52;;;;;;;3.94;83.83;96374.16;4956379;29;20031;-76
2020/12/29 09:42:01;;;;;;;4.88;1.27;;;;;;;3.91;83.18;96379.38;4956092;29;20059;-76
2020/12/29 09:44:26;;;;;;;2.35;1.65;;;;;;;3.91;83.79;96392.19;4956205;28;20066;-77
2020/12/29 09:46:52;;;;;;;17.23;2.13;;;;;;;3.79;85.08;96395.97;4956518;29;20085;-74
2020/12/29 09:49:17;;;;;;;3.33;0.90;;;;;;;3.75;85.35;96405.44;4956196;29;20047;-74
2020/12/29 09:51:42;;;;;;;1.30;0.98;;;;;;;3.83;85.32;96398.38;4955726;29;20026;-74
2020/12/29 09:54:08;;;;;;;1.88;1.23;;;;;;;3.79;84.85;96412.16;4956287;29;20023;-74
2020/12/29 09:56:33;;;;;;;1.73;1.05;;;;;;;3.81;84.58;96419.78;4956024;28;20166;-74
2020/12/29 09:58:58;;;;;;;3.03;1.00;;;;;;;3.83;83.66;96423.16;4956153;29;20034;-73
2020/12/29 10:01:24;;;;;;;0.70;0.70;;;;;;;4.03;83.20;96420.00;4955739;29;20528;-73
2020/12/29 10:03:49;;;;;;;1.33;0.90;;;;;;;4.07;82.64;96427.56;4955511;28;20029;-74
2020/12/29 10:06:15;;;;;;;3.60;1.45;;;;;;;4.13;83.18;96426.53;4955687;28;20070;-74
2020/12/29 10:08:40;;;;;;;1.20;1.10;;;;;;;4.14;82.46;96433.31;4955841;29;20119;-74
2020/12/29 10:11:05;;;;;;;7.18;2.90;;;;;;;4.15;83.16;96434.16;4955533;29;20035;-74
2020/12/29 10:13:31;;;;;;;4.68;2.33;;;;;;;4.29;82.56;96440.53;4955750;29;20028;-74
2020/12/29 10:15:56;;;;;;;1.15;1.05;;;;;;;4.32;81.64;96448.13;4955429;28;20028;-74
2020/12/29 10:18:22;;;;;;;1.60;1.30;;;;;;;4.29;81.72;96458.47;4955694;29;20035;-77
2020/12/29 10:20:47;;;;;;;0.90;0.90;;;;;;;4.36;81.31;96459.16;4955282;29;20034;-74
2020/12/29 10:23:13;;;;;;;1.13;0.80;;;;;;;4.37;80.33;96464.22;4955811;29;20112;-75
2020/12/29 10:25:38;;;;;;;2.30;1.05;;;;;;;4.52;79.72;96477.44;4955534;28;20019;-71
2020/12/29 10:28:04;;;;;;;0.90;0.90;;;;;;;4.89;79.29;96477.97;4955350;29;20034;-71
2020/12/29 10:30:29;;;;;;;4.55;1.80;;;;;;;5.11;78.60;96487.50;4955445;29;20028;-71
2020/12/29 10:32:54;;;;;;;1.25;0.93;;;;;;;5.17;78.38;96489.84;4954976;29;20398;-71
2020/12/29 10:35:19;;;;;;;3.72;1.10;;;;;;;5.00;78.13;96497.28;4955297;28;20039;-72
2020/12/29 10:37:46;;;;;;;1.10;0.90;;;;;;;4.75;78.46;96498.09;4955420;29;20038;-71
2020/12/29 10:40:11;;;;;;;2.90;1.08;;;;;;;4.70;79.51;96499.97;4955290;29;20062;-72
2020/12/29 10:42:37;;;;;;;1.75;1.10;;;;;;;4.86;80.00;96510.56;4954974;29;20055;-71
2020/12/29 10:45:02;;;;;;;0.90;0.82;;;;;;;4.84;79.34;96513.19;4955158;28;20592;-71
2020/12/29 10:47:27;;;;;;;1.15;1.00;;;;;;;4.75;79.30;96516.03;4955063;29;20027;-71
2020/12/29 10:49:53;;;;;;;0.90;0.90;;;;;;;4.53;78.93;96527.84;4955107;29;20109;-71
2020/12/29 10:52:18;;;;;;;1.48;0.80;;;;;;;4.67;79.23;96520.56;4954763;29;20114;-70
2020/12/29 10:54:43;;;;;;;1.20;1.10;;;;;;;4.67;78.54;96524.84;4954950;28;20035;-71
2020/12/29 10:57:09;;;;;;;1.20;1.10;;;;;;;4.65;78.70;96535.16;4954796;29;20031;-70
2020/12/29 10:59:34;;;;;;;1.90;1.10;;;;;;;4.74;78.76;96537.44;4937690;29;20035;-72
2020/12/29 11:01:59;;;;;;;0.95;0.95;;;;;;;4.78;78.12;96545.88;4946089;28;20030;-71
2020/12/29 11:04:25;;;;;;;2.70;1.00;;;;;;;5.02;77.19;96551.97;4946344;28;20441;-76
2020/12/29 11:06:51;;;;;;;1.48;1.13;;;;;;;5.08;76.13;96556.91;4924023;29;20036;-75
2020/12/29 11:09:17;;;;;;;1.10;1.00;;;;;;;5.08;76.95;96557.75;4942621;29;20142;-77
2020/12/29 11:11:43;;;;;;;1.20;1.02;;;;;;;4.99;76.31;96562.34;4945556;29;20039;-79
2020/12/29 11:14:08;;;;;;;2.75;2.42;;;;;;;5.16;77.33;96560.06;4944964;28;20046;-78
2020/12/29 11:16:34;;;;;;;2.08;1.35;;;;;;;5.33;76.35;96568.06;4942868;28;20150;-72
2020/12/29 11:18:59;;;;;;;1.70;1.30;;;;;;;5.32;74.96;96568.97;4943064;28;20031;-71
2020/12/29 11:21:24;;;;;;;13.02;4.47;;;;;;;5.89;72.56;96564.44;4941416;28;20515;-71
2020/12/29 11:23:50;;;;;;;3.75;1.60;;;;;;;6.03;72.47;96562.25;4943418;28;20102;-71
2020/12/29 11:26:16;;;;;;;1.27;1.10;;;;;;;5.88;71.94;96561.03;4943760;28;20028;-71
2020/12/29 11:28:42;;;;;;;1.10;1.10;;;;;;;5.65;72.91;96566.13;4945755;28;20392;-72
2020/12/29 11:31:21;;;;;;;1.20;1.13;;;;;;;7.89;65.45;96563.53;4940763;28;20034;-72
2020/12/29 11:33:47;;;;;;;1.00;0.90;;;;;;;9.12;61.07;96551.06;4945365;28;20028;-72
2020/12/29 11:36:19;;;;;;;1.42;0.90;;;;;;;10.23;56.98;96560.97;4945620;28;20031;-78
2020/12/29 11:38:45;;;;;;;3.83;0.98;;;;;;;11.58;51.89;96559.59;4945569;28;20066;-78
2020/12/29 11:41:11;;;;;;;2.95;0.98;;;;;;;10.80;55.03;96565.75;4941369;28;20035;-78
2020/12/29 11:43:37;;;;;;;1.95;0.98;;;;;;;11.96;51.10;96561.75;4942526;28;20081;-77
2020/12/29 11:46:07;;;;;;;1.45;0.77;;;;;;;13.47;46.70;96554.09;4944680;28;20077;-75
2020/12/29 11:48:32;;;;;;;0.90;0.75;;;;;;;12.97;46.97;96559.94;4945449;28;20039;-71
2020/12/29 11:50:58;;;;;;;2.97;0.88;;;;;;;13.18;46.81;96562.91;4940101;28;20049;-71
2020/12/29 11:53:23;;;;;;;1.38;0.80;;;;;;;13.18;46.31;96568.13;4944056;28;20036;-71
2020/12/29 11:55:48;;;;;;;1.30;0.90;;;;;;;12.86;46.95;96583.97;4942693;28;20027;-73
2020/12/29 11:58:14;;;;;;;1.27;1.17;;;;;;;14.49;43.30;96575.03;4945341;28;20075;-74
2020/12/29 12:00:39;;;;;;;2.10;0.88;;;;;;;13.77;44.14;96582.47;4940220;28;20030;-73
2020/12/29 12:03:04;;;;;;;0.93;0.73;;;;;;;13.81;43.28;96580.50;4945156;28;20036;-73
2020/12/29 12:05:30;;;;;;;6.93;3.63;;;;;;;13.08;45.36;96576.50;4944723;28;20118;-73
2020/12/29 12:07:55;;;;;;;1.45;1.02;;;;;;;13.55;43.77;96580.47;4942204;28;20024;-73
2020/12/29 12:10:20;;;;;;;2.35;0.63;;;;;;;13.30;44.40;96593.38;4940516;28;20038;-73
2020/12/29 12:12:45;;;;;;;0.90;0.68;;;;;;;15.34;40.06;96580.34;4944024;28;20113;-73
2020/12/29 12:15:11;;;;;;;4.30;0.90;;;;;;;15.05;41.19;96580.66;4941772;28;20497;-73
2020/12/29 12:17:37;;;;;;;0.55;0.55;;;;;;;13.23;43.59;96586.91;4945292;28;20046;-73
2020/12/29 12:20:03;;;;;;;0.70;0.50;;;;;;;11.27;48.14;96593.41;4941989;28;20028;-73
2020/12/29 12:22:28;;;;;;;1.10;0.80;;;;;;;10.75;50.72;96593.66;4943402;29;20094;-73
2020/12/29 12:24:53;;;;;;;1.08;0.95;;;;;;;10.36;49.71;96592.25;4943283;28;20023;-73
2020/12/29 12:27:19;;;;;;;0.70;0.70;;;;;;;9.89;53.20;96600.69;4944449;28;20110;-73
2020/12/29 12:29:44;;;;;;;1.30;0.73;;;;;;;8.52;55.64;96613.25;4948868;28;20027;-73
2020/12/29 12:32:09;;;;;;;2.72;1.00;;;;;;;7.69;59.14;96615.94;4945134;28;20027;-73
2020/12/29 12:34:36;;;;;;;2.50;1.10;;;;;;;7.45;60.44;96613.47;4946995;28;20035;-73
2020/12/29 12:37:01;;;;;;;5.10;3.22;;;;;;;7.25;61.58;96615.97;4944117;28;20063;-73
2020/12/29 12:39:27;;;;;;;7.82;1.00;;;;;;;6.58;62.62;96623.72;4948789;28;20468;-73
2020/12/29 12:41:52;;;;;;;2.70;0.88;;;;;;;6.38;63.87;96621.84;4945740;28;20035;-73
2020/12/29 12:44:17;;;;;;;0.80;0.80;;;;;;;6.40;64.08;96620.09;4946676;29;20034;-71
2020/12/29 12:46:43;;;;;;;1.00;1.00;;;;;;;6.50;64.56;96620.59;4943190;28;20511;-70
2020/12/29 12:49:09;;;;;;;2.15;1.15;;;;;;;6.21;65.06;96630.19;4948537;28;20038;-73
2020/12/29 12:51:35;;;;;;;1.00;0.90;;;;;;;6.43;64.64;96622.53;4946137;29;20027;-72
2020/12/29 12:54:01;;;;;;;2.47;1.08;;;;;;;6.53;64.99;96630.78;4946638;28;20039;-72
2020/12/29 12:56:28;;;;;;;1.00;0.90;;;;;;;6.64;65.27;96628.63;4942550;28;20023;-75
2020/12/29 12:58:53;;;;;;;0.80;0.80;;;;;;;7.06;64.77;96630.47;4948439;28;20030;-73
2020/12/29 13:01:21;;;;;;;1.30;1.05;;;;;;;7.10;63.78;96639.75;4948141;28;20027;-70
2020/12/29 13:03:47;;;;;;;1.63;1.20;;;;;;;7.68;62.44;96642.59;4942818;28;20052;-71
2020/12/29 13:06:21;;;;;;;2.22;0.70;;;;;;;8.04;61.82;96647.13;4942317;28;20031;-71
2020/12/29 13:08:46;;;;;;;1.40;1.30;;;;;;;8.23;60.86;96645.44;4948486;28;20039;-71
2020/12/29 13:11:11;;;;;;;5.57;1.00;;;;;;;8.43;60.64;96642.03;4947998;28;20078;-71
2020/12/29 13:13:37;;;;;;;0.98;0.90;;;;;;;8.38;60.96;96647.38;4948237;28;20038;-71
2020/12/29 13:16:02;;;;;;;2.42;0.90;;;;;;;7.56;61.94;96656.00;4962482;23;20409;-74
2020/12/29 13:18:27;;;;;;;0.63;0.63;;;;;;;7.57;63.99;96653.34;4931513;29;20027;-74
2020/12/29 13:20:53;;;;;;;1.83;0.80;;;;;;;7.67;62.87;96658.97;4948742;28;20042;-75
2020/12/29 13:23:18;;;;;;;1.55;0.85;;;;;;;7.46;63.53;96661.50;4947529;28;20027;-74
2020/12/29 13:25:43;;;;;;;2.05;0.95;;;;;;;6.97;65.38;96661.75;4940818;28;20020;-74
2020/12/29 13:28:09;;;;;;;14.15;7.50;;;;;;;6.41;67.14;96668.06;4926452;29;20676;-74
2020/12/29 13:30:34;;;;;;;6.57;3.13;;;;;;;6.25;68.36;96669.50;4927123;29;20485;-74
2020/12/29 13:32:59;;;;;;;1.02;1.02;;;;;;;6.33;68.81;96667.47;4924962;29;20056;-74
2020/12/29 13:35:25;;;;;;;1.98;1.15;;;;;;;6.49;67.42;96670.38;4927350;29;20559;-74
2020/12/29 13:37:50;;;;;;;1.70;1.10;;;;;;;6.43;68.48;96671.38;4926182;29;20167;-75
2020/12/29 13:40:15;;;;;;;2.50;0.90;;;;;;;6.57;67.94;96668.34;4927524;29;20035;-74
2020/12/29 13:42:41;;;;;;;2.55;0.90;;;;;;;6.62;67.65;96666.44;4910969;29;20028;-70
2020/12/29 13:45:07;;;;;;;3.55;1.15;;;;;;;6.42;67.62;96674.88;4911372;29;20129;-70
2020/12/29 13:47:33;;;;;;;1.65;1.15;;;;;;;6.17;68.46;96680.03;4928450;29;20047;-70
2020/12/29 13:49:58;;;;;;;1.17;1.08;;;;;;;6.17;68.73;96695.47;4925421;29;20028;-70
2020/12/29 13:52:23;;;;;;;1.38;0.85;;;;;;;6.32;69.18;96705.22;4928388;29;20035;-70
2020/12/29 13:54:49;;;;;;;1.80;0.90;;;;;;;6.31;68.72;96707.84;4924234;29;20028;-70
2020/12/29 13:57:14;;;;;;;1.77;0.80;;;;;;;6.27;68.79;96701.13;4928209;29;20035;-70
2020/12/29 13:59:39;;;;;;;2.05;0.80;;;;;;;6.08;68.87;96706.03;4911010;29;20054;-70
2020/12/29 14:02:05;;;;;;;1.90;1.00;;;;;;;6.13;70.53;96710.13;4925440;29;20036;-70
2020/12/29 14:04:30;;;;;;;1.85;0.85;;;;;;;6.26;69.17;96715.72;4924132;29;20027;-71
2020/12/29 14:06:55;;;;;;;10.18;5.93;;;;;;;6.07;70.12;96712.09;4926864;29;20102;-68
2020/12/29 14:09:21;;;;;;;1.73;1.20;;;;;;;5.63;71.29;96719.47;4928136;29;20028;-71
2020/12/29 14:11:51;;;;;;;4.05;2.33;;;;;;;5.62;71.50;96713.50;4927872;29;20100;-70
2020/12/29 14:14:17;;;;;;;4.32;2.60;;;;;;;6.02;72.00;96719.13;4927821;29;20115;-70
2020/12/29 14:16:43;;;;;;;8.15;1.40;;;;;;;5.87;70.27;96721.25;4921761;29;20039;-70
2020/12/29 14:19:09;;;;;;;1.48;1.25;;;;;;;5.74;71.57;96721.69;4926939;29;20043;-70
2020/12/29 14:21:34;;;;;;;2.40;1.20;;;;;;;5.68;70.44;96723.56;4923916;29;20044;-70
2020/12/29 14:24:00;;;;;;;5.47;1.65;;;;;;;5.95;70.97;96717.63;4925751;29;20026;-70
2020/12/29 14:26:25;;;;;;;3.50;1.67;;;;;;;5.56;72.77;96717.97;4921828;29;20028;-70
2020/12/29 14:28:51;;;;;;;1.58;1.48;;;;;;;5.69;72.14;96724.41;4926688;29;20042;-70
2020/12/29 14:31:16;;;;;;;1.98;0.98;;;;;;;5.79;71.21;96725.81;4927497;29;20032;-69
2020/12/29 14:33:42;;;;;;;4.10;1.10;;;;;;;5.62;72.32;96733.22;4927434;29;20734;-72
2020/12/29 14:36:08;;;;;;;0.93;0.93;;;;;;;5.60;73.11;96737.53;4924017;29;20085;-73
2020/12/29 14:38:35;;;;;;;2.10;1.65;;;;;;;5.65;72.81;96743.38;4927334;29;20119;-73
2020/12/29 14:41:02;;;;;;;4.97;1.55;;;;;;;5.57;72.71;96741.06;4922582;29;20040;-72
2020/12/29 14:43:27;;;;;;;7.53;1.73;;;;;;;5.47;73.58;96744.81;4910209;29;20058;-72
2020/12/29 14:45:52;;;;;;;5.35;1.60;;;;;;;5.49;72.68;96748.16;4927150;29;20120;-72
2020/12/29 14:48:20;;;;;;;4.25;1.95;;;;;;;5.65;72.12;96733.94;4927390;29;20066;-72
2020/12/29 14:50:46;;;;;;;3.08;1.80;;;;;;;5.54;72.00;96740.31;4921373;29;20058;-75
2020/12/29 14:53:11;;;;;;;4.50;1.85;;;;;;;5.65;72.56;96728.81;4927130;29;20042;-75
2020/12/29 14:55:37;;;;;;;1.42;1.23;;;;;;;5.53;72.41;96733.50;4926723;29;20034;-75
2020/12/29 14:58:02;;;;;;;1.10;1.10;;;;;;;5.17;73.58;96741.41;4924530;29;20031;-76
2020/12/29 15:00:27;;;;;;;3.15;1.88;;;;;;;5.05;74.83;96736.66;4922844;29;20051;-75
2020/12/29 15:02:53;;;;;;;5.15;2.05;;;;;;;5.22;73.88;96739.56;4926990;29;20118;-78
2020/12/29 15:05:19;;;;;;;2.47;2.08;;;;;;;5.07;74.38;96745.13;4924037;29;20110;-80
2020/12/29 15:07:44;;;;;;;2.97;1.98;;;;;;;5.11;74.62;96747.56;4925826;29;20032;-80
2020/12/29 15:10:09;;;;;;;2.85;1.77;;;;;;;5.40;73.91;96746.69;4924983;29;20072;-71
2020/12/29 15:12:35;;;;;;;3.80;1.85;;;;;;;5.21;74.08;96748.13;4924875;29;20047;-78
2020/12/29 15:15:00;;;;;;;3.10;1.77;;;;;;;5.05;74.45;96747.75;4924984;29;20038;-71
2020/12/29 15:17:25;;;;;;;4.03;2.00;;;;;;;4.95;74.91;96753.19;4925082;29;20032;-73
2020/12/29 15:19:51;;;;;;;2.63;1.50;;;;;;;5.06;75.19;96744.28;4923236;29;20114;-72
2020/12/29 15:22:16;;;;;;;3.67;2.20;;;;;;;5.02;75.29;96744.44;4925365;29;20058;-79
2020/12/29 15:24:41;;;;;;;6.68;4.18;;;;;;;5.08;74.65;96752.81;4925543;29;20134;-73
2020/12/29 15:27:07;;;;;;;6.10;3.03;;;;;;;5.14;75.40;96756.91;4915494;29;20485;-71
2020/12/29 15:29:32;;;;;;;5.85;3.08;;;;;;;5.00;75.02;96769.31;4926475;29;20115;-71
2020/12/29 15:31:57;;;;;;;5.57;3.25;;;;;;;4.95;75.63;96763.47;4922496;29;20110;-71
2020/12/29 15:34:23;;;;;;;4.50;2.70;;;;;;;4.91;76.32;96765.28;4924410;29;20075;-71
2020/12/29 15:36:53;;;;;;;4.72;2.33;;;;;;;4.85;76.75;96766.28;4926304;29;20500;-73
2020/12/29 15:39:19;;;;;;;5.40;2.35;;;;;;;4.82;77.39;96776.63;4926538;29;20094;-71
2020/12/29 15:41:45;;;;;;;10.68;4.88;;;;;;;4.82;77.10;96766.34;4920384;29;20039;-70
2020/12/29 15:44:10;;;;;;;18.60;8.57;;;;;;;4.78;77.43;96769.88;4926239;29;20028;-71
2020/12/29 15:46:36;;;;;;;10.45;5.80;;;;;;;4.79;77.58;96769.03;4922172;29;20490;-72
2020/12/29 15:49:02;;;;;;;5.75;2.88;;;;;;;4.73;77.92;96761.47;4921314;29;20035;-72
2020/12/29 15:51:28;;;;;;;7.50;3.60;;;;;;;4.70;77.84;96782.09;4926265;29;20034;-70
2020/12/29 15:53:55;;;;;;;6.57;3.80;;;;;;;4.67;77.57;96777.03;4922529;29;20508;-70
2020/12/29 15:56:22;;;;;;;7.28;3.08;;;;;;;4.72;77.24;96782.88;4924010;29;20722;-70
2020/12/29 15:58:48;;;;;;;8.38;4.30;;;;;;;4.66;77.13;96785.63;4924027;29;20034;-70
2020/12/29 16:01:13;;;;;;;11.82;6.25;;;;;;;4.60;77.33;96793.50;4919655;29;20027;-70
2020/12/29 16:03:40;;;;;;;13.45;6.70;;;;;;;4.55;77.91;96790.22;4922545;29;20119;-70
2020/12/29 16:06:06;;;;;;;11.13;5.88;;;;;;;4.54;77.79;96791.06;4905813;29;20457;-70
2020/12/29 16:08:31;;;;;;;10.25;5.60;;;;;;;4.55;78.73;96813.28;4925325;29;20235;-71
2020/12/29 16:10:56;;;;;;;6.72;4.22;;;;;;;4.45;78.30;96806.69;4925329;29;20068;-71
2020/12/29 16:13:22;;;;;;;9.40;4.38;;;;;;;4.37;78.57;96810.31;4920284;29;20374;-71
2020/12/29 16:15:47;;;;;;;8.50;4.45;;;;;;;4.44;78.26;96816.09;4920324;29;20032;-70
2020/12/29 16:18:12;;;;;;;6.88;4.13;;;;;;;4.43;80.00;96816.16;4923913;29;20074;-70
2020/12/29 16:20:38;;;;;;;10.85;5.03;;;;;;;4.45;79.11;96816.94;4921044;29;20075;-70
2020/12/29 16:23:04;;;;;;;48.50;20.63;;;;;;;4.42;79.72;96823.00;4908791;29;20122;-70
2020/12/29 16:25:29;;;;;;;54.85;26.17;;;;;;;4.37;79.69;96819.72;4925576;29;20130;-70
2020/12/29 16:27:54;;;;;;;68.28;30.98;;;;;;;4.25;79.97;96825.97;4908842;29;20032;-70
2020/12/29 16:30:20;;;;;;;61.67;26.50;;;;;;;4.24;79.70;96829.41;4922117;29;20032;-70
2020/12/29 16:32:46;;;;;;;53.45;22.23;;;;;;;3.94;80.37;96825.88;4924881;29;20044;-70
2020/12/29 16:35:12;;;;;;;72.70;29.70;;;;;;;3.96;81.40;96833.50;4924662;29;20024;-70
2020/12/29 16:37:38;;;;;;;140.38;49.45;;;;;;;3.96;81.44;96839.47;4925934;29;20513;-70
2020/12/29 16:40:04;;;;;;;210.20;81.35;;;;;;;3.69;82.35;96848.66;4922493;29;20653;-70
2020/12/29 16:42:29;;;;;;;164.15;61.88;;;;;;;3.65;82.37;96848.75;4924162;29;20038;-70
2020/12/29 16:44:54;;;;;;;133.07;49.33;;;;;;;3.64;82.38;96857.31;4908335;29;20405;-70
2020/12/29 16:47:20;;;;;;;135.80;50.17;;;;;;;3.47;82.90;96855.09;4926048;29;20027;-70
2020/12/29 16:49:46;;;;;;;106.43;39.38;;;;;;;3.32;83.72;96854.53;4919881;29;20111;-70
2020/12/29 16:52:11;;;;;;;104.60;39.88;;;;;;;3.32;83.42;96862.22;4925370;29;20051;-71
2020/12/29 16:54:37;;;;;;;96.00;42.85;;;;;;;3.20;83.54;96861.63;4924166;29;20079;-70
2020/12/29 16:57:06;;;;;;;120.55;54.55;;;;;;;3.10;83.87;96860.97;4925769;29;20572;-71
2020/12/29 16:59:32;;;;;;;101.35;46.72;;;;;;;3.13;83.85;96868.56;4923676;29;20036;-70
2020/12/29 17:01:58;;;;;;;78.97;38.45;;;;;;;3.13;83.62;96876.25;4925551;29;20074;-70
2020/12/29 17:04:23;;;;;;;27.85;13.77;;;;;;;3.28;83.55;96870.81;4925795;29;21271;-70
2020/12/29 17:06:49;;;;;;;18.42;9.88;;;;;;;3.44;83.41;96885.88;4924472;29;20031;-70
2020/12/29 17:09:14;;;;;;;20.00;10.50;;;;;;;3.53;83.52;96875.44;4924507;29;20032;-70
2020/12/29 17:11:39;;;;;;;18.85;9.68;;;;;;;3.48;82.87;96878.13;4891553;29;20043;-70
2020/12/29 17:14:05;;;;;;;20.73;10.80;;;;;;;3.47;82.81;96885.81;4926027;29;20093;-70
2020/12/29 17:16:32;;;;;;;24.95;13.63;;;;;;;3.43;83.55;96890.13;4924315;29;20129;-70
2020/12/29 17:18:58;;;;;;;17.73;9.30;;;;;;;3.43;83.56;96894.41;4928134;29;20118;-70
2020/12/29 17:21:24;;;;;;;21.35;11.35;;;;;;;3.41;83.23;96893.63;4928219;29;20142;-70
2020/12/29 17:23:52;;;;;;;18.95;11.45;;;;;;;3.37;83.47;96895.38;4928775;29;20123;-70
2020/12/29 17:26:19;;;;;;;22.40;10.77;;;;;;;3.31;84.22;96896.34;4928349;29;20038;-70
2020/12/29 17:28:46;;;;;;;19.42;9.40;;;;;;;3.32;83.82;96902.31;4928034;29;20035;-70
2020/12/29 17:31:11;;;;;;;12.30;7.35;;;;;;;3.37;82.89;96902.22;4928739;29;20429;-70
2020/12/29 17:33:37;;;;;;;19.88;9.95;;;;;;;3.32;82.96;96908.28;4928501;29;20118;-70